sensor_id;sensor_type;location;lat;lon;timestamp;noise_LAeq;noise_LA_min;noise_LA_max;noise_LA01;noise_LA95
64996;Laerm;51545;51.568;6.998;2023-08-06T00:00:04;37.25;32.82;45.91;;
64996;Laerm;51545;51.568;6.998;2023-08-06T00:02:30;34.66;31.23;42.93;;
64996;Laerm;51545;51.568;6.998;2023-08-06T00:04:55;35.05;31.30;43.21;;
64996;Laerm;51545;51.568;6.998;2023-08-06T00:07:21;35.52;31.01;43.76;;
64996;Laerm;51545;51.568;6.998;2023-08-06T00:09:46;35.85;31.26;44.44;;
64996;Laerm;51545;51.568;6.998;2023-08-06T00:12:11;36.54;31.44;47.29;;
64996;Laerm;51545;51.568;6.998;2023-08-06T00:14:37;34.84;29.78;43.47;;
64996;Laerm;51545;51.568;6.998;2023-08-06T00:17:03;34.55;30.44;41.58;;
64996;Laerm;51545;51.568;6.998;2023-08-06T00:19:28;33.92;30.24;39.47;;
64996;Laerm;51545;51.568;6.998;2023-08-06T00:21:54;35.48;31.70;46.05;;
64996;Laerm;51545;51.568;6.998;2023-08-06T00:24:19;34.91;30.26;41.71;;
64996;Laerm;51545;51.568;6.998;2023-08-06T00:26:44;34.41;29.75;49.34;;
64996;Laerm;51545;51.568;6.998;2023-08-06T00:29:10;35.61;30.23;44.21;;
64996;Laerm;51545;51.568;6.998;2023-08-06T00:31:35;36.69;31.17;49.39;;
64996;Laerm;51545;51.568;6.998;2023-08-06T00:34:01;34.58;30.27;42.24;;
64996;Laerm;51545;51.568;6.998;2023-08-06T00:36:26;35.28;31.02;48.19;;
64996;Laerm;51545;51.568;6.998;2023-08-06T00:38:52;36.66;31.02;46.45;;
64996;Laerm;51545;51.568;6.998;2023-08-06T00:41:17;34.61;30.46;44.60;;
64996;Laerm;51545;51.568;6.998;2023-08-06T00:43:43;34.04;30.04;42.41;;
64996;Laerm;51545;51.568;6.998;2023-08-06T00:46:08;33.41;29.76;50.92;;
64996;Laerm;51545;51.568;6.998;2023-08-06T00:48:34;36.25;30.79;47.91;;
64996;Laerm;51545;51.568;6.998;2023-08-06T00:51:01;39.17;32.33;49.83;;
64996;Laerm;51545;51.568;6.998;2023-08-06T00:53:27;35.77;30.03;44.79;;
64996;Laerm;51545;51.568;6.998;2023-08-06T00:55:52;35.19;30.34;42.06;;
64996;Laerm;51545;51.568;6.998;2023-08-06T00:58:18;34.70;29.58;46.45;;
64996;Laerm;51545;51.568;6.998;2023-08-06T01:00:44;33.65;30.31;41.32;;
64996;Laerm;51545;51.568;6.998;2023-08-06T01:03:09;32.18;29.36;41.34;;
64996;Laerm;51545;51.568;6.998;2023-08-06T01:05:35;34.08;30.22;44.78;;
64996;Laerm;51545;51.568;6.998;2023-08-06T01:13:45;37.08;29.04;53.53;;
64996;Laerm;51545;51.568;6.998;2023-08-06T01:16:17;35.86;28.79;44.36;;
64996;Laerm;51545;51.568;6.998;2023-08-06T01:18:43;32.42;29.22;46.54;;
64996;Laerm;51545;51.568;6.998;2023-08-06T01:21:12;34.80;28.74;45.04;;
64996;Laerm;51545;51.568;6.998;2023-08-06T01:23:38;32.95;28.70;43.15;;
64996;Laerm;51545;51.568;6.998;2023-08-06T01:26:22;33.43;28.82;42.15;;
64996;Laerm;51545;51.568;6.998;2023-08-06T01:29:25;32.60;28.96;43.51;;
64996;Laerm;51545;51.568;6.998;2023-08-06T01:31:54;33.90;29.65;54.48;;
64996;Laerm;51545;51.568;6.998;2023-08-06T01:34:23;33.74;28.73;43.66;;
64996;Laerm;51545;51.568;6.998;2023-08-06T01:36:52;36.04;29.35;48.85;;
64996;Laerm;51545;51.568;6.998;2023-08-06T01:39:18;34.45;29.66;42.97;;
64996;Laerm;51545;51.568;6.998;2023-08-06T01:41:47;32.10;28.65;51.21;;
64996;Laerm;51545;51.568;6.998;2023-08-06T01:44:13;31.55;28.97;42.95;;
64996;Laerm;51545;51.568;6.998;2023-08-06T01:46:38;34.10;29.58;43.56;;
64996;Laerm;51545;51.568;6.998;2023-08-06T01:49:04;34.47;30.14;41.28;;
64996;Laerm;51545;51.568;6.998;2023-08-06T01:51:29;33.52;28.75;46.84;;
64996;Laerm;51545;51.568;6.998;2023-08-06T01:53:55;33.07;28.86;39.21;;
64996;Laerm;51545;51.568;6.998;2023-08-06T01:56:20;33.15;29.83;40.69;;
64996;Laerm;51545;51.568;6.998;2023-08-06T01:58:46;33.01;29.15;48.97;;
64996;Laerm;51545;51.568;6.998;2023-08-06T02:01:11;32.64;28.82;41.66;;
64996;Laerm;51545;51.568;6.998;2023-08-06T02:03:37;32.02;29.06;41.54;;
64996;Laerm;51545;51.568;6.998;2023-08-06T02:06:02;32.66;29.74;40.12;;
64996;Laerm;51545;51.568;6.998;2023-08-06T02:08:27;34.73;29.14;51.68;;
64996;Laerm;51545;51.568;6.998;2023-08-06T02:10:53;41.64;29.35;59.70;;
64996;Laerm;51545;51.568;6.998;2023-08-06T02:13:19;32.45;29.16;41.98;;
64996;Laerm;51545;51.568;6.998;2023-08-06T02:15:45;32.55;28.90;40.21;;
64996;Laerm;51545;51.568;6.998;2023-08-06T02:18:14;32.69;29.49;36.72;;
64996;Laerm;51545;51.568;6.998;2023-08-06T02:20:40;32.75;28.83;45.49;;
64996;Laerm;51545;51.568;6.998;2023-08-06T02:23:06;31.90;29.12;37.61;;
64996;Laerm;51545;51.568;6.998;2023-08-06T02:25:32;32.01;29.10;39.57;;
64996;Laerm;51545;51.568;6.998;2023-08-06T02:27:57;33.94;29.59;45.84;;
64996;Laerm;51545;51.568;6.998;2023-08-06T02:30:23;31.84;29.56;34.69;;
64996;Laerm;51545;51.568;6.998;2023-08-06T02:32:48;32.13;28.78;36.59;;
64996;Laerm;51545;51.568;6.998;2023-08-06T02:35:14;31.80;28.40;39.31;;
64996;Laerm;51545;51.568;6.998;2023-08-06T02:37:39;30.80;28.28;43.66;;
64996;Laerm;51545;51.568;6.998;2023-08-06T02:40:05;31.66;28.47;36.51;;
64996;Laerm;51545;51.568;6.998;2023-08-06T02:42:30;32.95;29.02;45.54;;
64996;Laerm;51545;51.568;6.998;2023-08-06T02:44:56;32.78;29.28;38.26;;
64996;Laerm;51545;51.568;6.998;2023-08-06T02:47:21;36.02;31.29;42.10;;
64996;Laerm;51545;51.568;6.998;2023-08-06T02:49:47;43.44;33.41;50.30;;
64996;Laerm;51545;51.568;6.998;2023-08-06T02:52:12;40.20;32.68;48.04;;
64996;Laerm;51545;51.568;6.998;2023-08-06T02:54:38;35.79;30.51;45.64;;
64996;Laerm;51545;51.568;6.998;2023-08-06T02:57:04;35.04;29.96;48.19;;
64996;Laerm;51545;51.568;6.998;2023-08-06T02:59:30;33.21;29.95;49.70;;
64996;Laerm;51545;51.568;6.998;2023-08-06T03:01:56;34.04;30.69;46.18;;
64996;Laerm;51545;51.568;6.998;2023-08-06T03:04:21;34.56;29.64;46.50;;
64996;Laerm;51545;51.568;6.998;2023-08-06T03:06:49;33.38;29.65;44.72;;
64996;Laerm;51545;51.568;6.998;2023-08-06T03:09:14;34.94;29.10;43.78;;
64996;Laerm;51545;51.568;6.998;2023-08-06T03:11:40;35.22;29.34;41.95;;
64996;Laerm;51545;51.568;6.998;2023-08-06T03:14:05;35.18;30.07;46.05;;
64996;Laerm;51545;51.568;6.998;2023-08-06T03:16:31;33.08;29.42;47.18;;
64996;Laerm;51545;51.568;6.998;2023-08-06T03:18:56;34.65;30.18;44.06;;
64996;Laerm;51545;51.568;6.998;2023-08-06T03:21:22;34.72;30.00;45.09;;
64996;Laerm;51545;51.568;6.998;2023-08-06T03:23:47;34.33;28.94;49.92;;
64996;Laerm;51545;51.568;6.998;2023-08-06T03:26:14;34.39;28.81;46.87;;
64996;Laerm;51545;51.568;6.998;2023-08-06T03:28:39;35.09;30.43;52.47;;
64996;Laerm;51545;51.568;6.998;2023-08-06T03:31:05;36.75;30.89;48.23;;
64996;Laerm;51545;51.568;6.998;2023-08-06T03:33:30;36.25;30.47;49.65;;
64996;Laerm;51545;51.568;6.998;2023-08-06T03:35:56;35.62;30.83;49.05;;
64996;Laerm;51545;51.568;6.998;2023-08-06T03:38:22;34.26;30.42;46.30;;
64996;Laerm;51545;51.568;6.998;2023-08-06T03:40:50;34.29;30.40;42.12;;
64996;Laerm;51545;51.568;6.998;2023-08-06T03:43:16;35.23;30.39;53.06;;
64996;Laerm;51545;51.568;6.998;2023-08-06T03:45:43;36.38;31.30;44.83;;
64996;Laerm;51545;51.568;6.998;2023-08-06T03:48:09;35.84;30.87;47.40;;
64996;Laerm;51545;51.568;6.998;2023-08-06T03:50:35;35.19;30.13;48.30;;
64996;Laerm;51545;51.568;6.998;2023-08-06T03:53:01;36.92;31.73;45.97;;
64996;Laerm;51545;51.568;6.998;2023-08-06T03:55:27;35.60;30.84;45.61;;
64996;Laerm;51545;51.568;6.998;2023-08-06T03:57:53;35.98;31.72;42.05;;
64996;Laerm;51545;51.568;6.998;2023-08-06T04:00:19;38.40;32.10;53.74;;
64996;Laerm;51545;51.568;6.998;2023-08-06T04:02:44;35.51;30.77;50.10;;
64996;Laerm;51545;51.568;6.998;2023-08-06T04:05:10;39.47;31.60;54.03;;
64996;Laerm;51545;51.568;6.998;2023-08-06T04:07:35;40.13;30.08;54.63;;
64996;Laerm;51545;51.568;6.998;2023-08-06T04:10:04;37.26;31.98;49.51;;
64996;Laerm;51545;51.568;6.998;2023-08-06T04:12:30;37.43;32.06;46.84;;
64996;Laerm;51545;51.568;6.998;2023-08-06T04:15:00;37.66;30.94;54.73;;
64996;Laerm;51545;51.568;6.998;2023-08-06T04:17:26;38.59;31.37;52.00;;
64996;Laerm;51545;51.568;6.998;2023-08-06T04:19:53;39.02;31.25;49.04;;
64996;Laerm;51545;51.568;6.998;2023-08-06T04:22:20;38.04;31.66;53.96;;
64996;Laerm;51545;51.568;6.998;2023-08-06T04:24:45;37.46;31.57;48.91;;
64996;Laerm;51545;51.568;6.998;2023-08-06T04:27:11;39.76;31.29;49.75;;
64996;Laerm;51545;51.568;6.998;2023-08-06T04:29:37;37.99;32.21;47.34;;
64996;Laerm;51545;51.568;6.998;2023-08-06T04:32:08;35.86;31.74;50.26;;
64996;Laerm;51545;51.568;6.998;2023-08-06T04:34:34;35.72;30.51;44.83;;
64996;Laerm;51545;51.568;6.998;2023-08-06T04:37:00;38.29;31.53;47.70;;
64996;Laerm;51545;51.568;6.998;2023-08-06T04:39:26;37.59;31.66;47.35;;
64996;Laerm;51545;51.568;6.998;2023-08-06T04:41:52;35.44;30.65;45.20;;
64996;Laerm;51545;51.568;6.998;2023-08-06T04:44:17;36.07;30.37;50.12;;
64996;Laerm;51545;51.568;6.998;2023-08-06T04:46:43;36.75;31.21;58.81;;
64996;Laerm;51545;51.568;6.998;2023-08-06T04:49:08;35.84;30.89;46.04;;
64996;Laerm;51545;51.568;6.998;2023-08-06T04:51:34;36.74;31.56;50.51;;
64996;Laerm;51545;51.568;6.998;2023-08-06T04:53:59;38.66;29.95;52.61;;
64996;Laerm;51545;51.568;6.998;2023-08-06T04:56:25;48.19;30.24;66.78;;
64996;Laerm;51545;51.568;6.998;2023-08-06T04:58:51;48.26;30.56;65.77;;
64996;Laerm;51545;51.568;6.998;2023-08-06T05:01:16;37.05;30.67;53.17;;
64996;Laerm;51545;51.568;6.998;2023-08-06T05:03:42;37.37;30.33;54.96;;
64996;Laerm;51545;51.568;6.998;2023-08-06T05:06:07;39.23;31.58;64.63;;
64996;Laerm;51545;51.568;6.998;2023-08-06T05:08:33;36.00;30.77;48.16;;
64996;Laerm;51545;51.568;6.998;2023-08-06T05:10:58;35.30;30.13;45.60;;
64996;Laerm;51545;51.568;6.998;2023-08-06T05:13:24;36.62;30.28;45.52;;
64996;Laerm;51545;51.568;6.998;2023-08-06T05:15:50;35.13;30.37;44.71;;
64996;Laerm;51545;51.568;6.998;2023-08-06T05:18:16;37.12;30.01;49.59;;
64996;Laerm;51545;51.568;6.998;2023-08-06T05:20:42;34.92;29.59;51.10;;
64996;Laerm;51545;51.568;6.998;2023-08-06T05:23:08;35.47;30.97;45.28;;
64996;Laerm;51545;51.568;6.998;2023-08-06T05:25:38;35.77;30.35;50.39;;
64996;Laerm;51545;51.568;6.998;2023-08-06T05:28:04;36.73;30.72;49.90;;
64996;Laerm;51545;51.568;6.998;2023-08-06T05:30:29;35.43;30.09;48.26;;
64996;Laerm;51545;51.568;6.998;2023-08-06T05:32:55;32.87;29.25;40.54;;
64996;Laerm;51545;51.568;6.998;2023-08-06T05:35:21;35.09;30.35;49.66;;
64996;Laerm;51545;51.568;6.998;2023-08-06T05:37:47;34.76;30.17;47.52;;
64996;Laerm;51545;51.568;6.998;2023-08-06T05:40:12;38.51;31.00;51.98;;
64996;Laerm;51545;51.568;6.998;2023-08-06T05:42:38;37.31;30.45;45.83;;
64996;Laerm;51545;51.568;6.998;2023-08-06T05:45:04;36.30;31.00;47.99;;
64996;Laerm;51545;51.568;6.998;2023-08-06T05:47:30;37.29;31.31;49.66;;
64996;Laerm;51545;51.568;6.998;2023-08-06T05:49:55;38.99;30.68;51.18;;
64996;Laerm;51545;51.568;6.998;2023-08-06T05:52:20;37.72;30.19;56.58;;
64996;Laerm;51545;51.568;6.998;2023-08-06T05:54:46;35.56;29.92;43.11;;
64996;Laerm;51545;51.568;6.998;2023-08-06T05:57:11;34.98;29.78;51.74;;
64996;Laerm;51545;51.568;6.998;2023-08-06T05:59:37;34.68;29.55;49.95;;
64996;Laerm;51545;51.568;6.998;2023-08-06T06:02:02;36.00;30.58;48.41;;
64996;Laerm;51545;51.568;6.998;2023-08-06T06:04:28;34.41;29.37;48.84;;
64996;Laerm;51545;51.568;6.998;2023-08-06T06:06:53;34.88;29.62;52.57;;
64996;Laerm;51545;51.568;6.998;2023-08-06T06:09:19;39.10;30.32;61.23;;
64996;Laerm;51545;51.568;6.998;2023-08-06T06:11:44;37.70;30.30;53.05;;
64996;Laerm;51545;51.568;6.998;2023-08-06T06:14:10;39.01;30.60;56.93;;
64996;Laerm;51545;51.568;6.998;2023-08-06T06:16:35;43.23;30.42;65.02;;
64996;Laerm;51545;51.568;6.998;2023-08-06T06:19:01;37.61;30.80;49.27;;
64996;Laerm;51545;51.568;6.998;2023-08-06T06:21:26;36.42;31.62;48.39;;
64996;Laerm;51545;51.568;6.998;2023-08-06T06:23:52;41.10;31.04;60.41;;
64996;Laerm;51545;51.568;6.998;2023-08-06T06:26:18;40.09;29.95;60.42;;
64996;Laerm;51545;51.568;6.998;2023-08-06T06:28:44;33.61;29.21;50.24;;
64996;Laerm;51545;51.568;6.998;2023-08-06T06:31:09;34.56;28.33;52.14;;
64996;Laerm;51545;51.568;6.998;2023-08-06T06:33:35;36.14;30.38;52.58;;
64996;Laerm;51545;51.568;6.998;2023-08-06T06:36:00;37.62;30.44;52.73;;
64996;Laerm;51545;51.568;6.998;2023-08-06T06:38:28;36.05;28.46;52.40;;
64996;Laerm;51545;51.568;6.998;2023-08-06T06:40:57;36.76;29.76;45.46;;
64996;Laerm;51545;51.568;6.998;2023-08-06T06:43:23;37.02;30.04;45.80;;
64996;Laerm;51545;51.568;6.998;2023-08-06T06:45:58;37.98;31.95;46.71;;
64996;Laerm;51545;51.568;6.998;2023-08-06T06:48:26;39.13;32.55;50.98;;
64996;Laerm;51545;51.568;6.998;2023-08-06T06:50:52;38.12;31.83;50.29;;
64996;Laerm;51545;51.568;6.998;2023-08-06T06:53:17;37.33;32.14;51.91;;
64996;Laerm;51545;51.568;6.998;2023-08-06T06:55:43;39.44;32.61;52.76;;
64996;Laerm;51545;51.568;6.998;2023-08-06T06:58:08;37.07;32.13;48.85;;
64996;Laerm;51545;51.568;6.998;2023-08-06T07:00:37;37.06;30.62;52.99;;
64996;Laerm;51545;51.568;6.998;2023-08-06T07:03:03;37.74;30.53;57.92;;
64996;Laerm;51545;51.568;6.998;2023-08-06T07:05:29;37.50;33.24;49.04;;
64996;Laerm;51545;51.568;6.998;2023-08-06T07:07:55;37.34;32.23;51.05;;
64996;Laerm;51545;51.568;6.998;2023-08-06T07:10:20;38.04;32.86;43.96;;
64996;Laerm;51545;51.568;6.998;2023-08-06T07:12:46;49.18;32.65;65.90;;
64996;Laerm;51545;51.568;6.998;2023-08-06T07:15:11;55.06;32.41;68.79;;
64996;Laerm;51545;51.568;6.998;2023-08-06T07:17:37;47.46;35.34;64.80;;
64996;Laerm;51545;51.568;6.998;2023-08-06T07:20:03;42.08;36.14;48.41;;
64996;Laerm;51545;51.568;6.998;2023-08-06T07:22:29;40.63;32.90;48.04;;
64996;Laerm;51545;51.568;6.998;2023-08-06T07:24:54;36.77;31.30;44.97;;
64996;Laerm;51545;51.568;6.998;2023-08-06T07:27:19;38.32;33.31;51.97;;
64996;Laerm;51545;51.568;6.998;2023-08-06T07:29:45;39.35;33.05;48.58;;
64996;Laerm;51545;51.568;6.998;2023-08-06T07:32:10;38.82;32.66;50.50;;
64996;Laerm;51545;51.568;6.998;2023-08-06T07:34:36;39.57;33.35;49.51;;
64996;Laerm;51545;51.568;6.998;2023-08-06T07:37:01;49.62;34.55;67.57;;
64996;Laerm;51545;51.568;6.998;2023-08-06T07:39:27;46.43;32.51;64.91;;
64996;Laerm;51545;51.568;6.998;2023-08-06T07:41:54;41.71;32.69;62.76;;
64996;Laerm;51545;51.568;6.998;2023-08-06T07:44:19;39.19;33.89;45.57;;
64996;Laerm;51545;51.568;6.998;2023-08-06T07:46:45;39.37;34.66;54.53;;
64996;Laerm;51545;51.568;6.998;2023-08-06T07:49:10;43.77;33.49;65.08;;
64996;Laerm;51545;51.568;6.998;2023-08-06T07:51:36;37.99;32.93;47.38;;
64996;Laerm;51545;51.568;6.998;2023-08-06T07:54:02;40.37;33.74;59.97;;
64996;Laerm;51545;51.568;6.998;2023-08-06T07:56:28;40.43;34.33;55.19;;
64996;Laerm;51545;51.568;6.998;2023-08-06T07:58:54;40.69;33.73;53.89;;
64996;Laerm;51545;51.568;6.998;2023-08-06T08:01:19;40.28;34.71;49.23;;
64996;Laerm;51545;51.568;6.998;2023-08-06T08:03:45;41.17;35.14;55.56;;
64996;Laerm;51545;51.568;6.998;2023-08-06T08:06:10;40.42;35.25;53.30;;
64996;Laerm;51545;51.568;6.998;2023-08-06T08:08:36;40.86;34.67;53.67;;
64996;Laerm;51545;51.568;6.998;2023-08-06T08:11:03;41.00;34.71;60.23;;
64996;Laerm;51545;51.568;6.998;2023-08-06T08:13:29;39.94;33.79;53.69;;
64996;Laerm;51545;51.568;6.998;2023-08-06T08:15:58;40.56;34.59;56.76;;
64996;Laerm;51545;51.568;6.998;2023-08-06T08:18:24;39.99;34.43;49.64;;
64996;Laerm;51545;51.568;6.998;2023-08-06T08:20:49;42.33;36.12;57.65;;
64996;Laerm;51545;51.568;6.998;2023-08-06T08:23:14;41.14;35.94;52.11;;
64996;Laerm;51545;51.568;6.998;2023-08-06T08:25:40;42.34;37.20;61.12;;
64996;Laerm;51545;51.568;6.998;2023-08-06T08:28:05;41.54;36.73;50.85;;
64996;Laerm;51545;51.568;6.998;2023-08-06T08:30:31;41.47;36.25;54.00;;
64996;Laerm;51545;51.568;6.998;2023-08-06T08:32:56;43.11;37.35;53.35;;
64996;Laerm;51545;51.568;6.998;2023-08-06T08:35:22;41.66;36.83;48.88;;
64996;Laerm;51545;51.568;6.998;2023-08-06T08:37:47;41.31;36.19;52.50;;
64996;Laerm;51545;51.568;6.998;2023-08-06T08:40:14;45.08;38.32;55.04;;
64996;Laerm;51545;51.568;6.998;2023-08-06T08:42:39;41.85;34.54;61.57;;
64996;Laerm;51545;51.568;6.998;2023-08-06T08:45:12;43.18;36.30;63.89;;
64996;Laerm;51545;51.568;6.998;2023-08-06T08:47:40;48.47;37.41;63.24;;
64996;Laerm;51545;51.568;6.998;2023-08-06T08:50:06;46.69;40.91;59.70;;
64996;Laerm;51545;51.568;6.998;2023-08-06T08:52:33;45.98;35.78;71.02;;
64996;Laerm;51545;51.568;6.998;2023-08-06T08:55:01;43.05;35.35;63.37;;
64996;Laerm;51545;51.568;6.998;2023-08-06T08:57:26;42.93;35.40;64.14;;
64996;Laerm;51545;51.568;6.998;2023-08-06T08:59:52;45.98;34.98;63.71;;
64996;Laerm;51545;51.568;6.998;2023-08-06T09:02:21;39.79;34.60;52.57;;
64996;Laerm;51545;51.568;6.998;2023-08-06T09:04:48;40.41;35.29;50.54;;
64996;Laerm;51545;51.568;6.998;2023-08-06T09:07:17;41.58;36.62;48.80;;
64996;Laerm;51545;51.568;6.998;2023-08-06T09:09:43;39.35;34.39;53.16;;
64996;Laerm;51545;51.568;6.998;2023-08-06T09:12:14;39.55;34.74;46.83;;
64996;Laerm;51545;51.568;6.998;2023-08-06T09:14:40;39.66;34.63;47.37;;
64996;Laerm;51545;51.568;6.998;2023-08-06T09:17:06;40.51;33.85;48.88;;
64996;Laerm;51545;51.568;6.998;2023-08-06T09:19:31;41.38;34.77;50.09;;
64996;Laerm;51545;51.568;6.998;2023-08-06T09:21:58;38.15;32.72;47.41;;
64996;Laerm;51545;51.568;6.998;2023-08-06T09:24:23;40.12;34.26;54.67;;
64996;Laerm;51545;51.568;6.998;2023-08-06T09:26:49;41.95;33.64;57.86;;
64996;Laerm;51545;51.568;6.998;2023-08-06T09:29:15;40.25;33.72;59.68;;
64996;Laerm;51545;51.568;6.998;2023-08-06T09:31:41;38.21;31.87;52.74;;
64996;Laerm;51545;51.568;6.998;2023-08-06T09:34:12;39.82;35.41;54.40;;
64996;Laerm;51545;51.568;6.998;2023-08-06T09:36:53;41.83;33.19;61.64;;
64996;Laerm;51545;51.568;6.998;2023-08-06T09:39:25;40.01;33.27;55.56;;
64996;Laerm;51545;51.568;6.998;2023-08-06T09:41:56;46.45;33.89;69.29;;
64996;Laerm;51545;51.568;6.998;2023-08-06T09:44:21;40.82;33.54;59.51;;
64996;Laerm;51545;51.568;6.998;2023-08-06T09:46:50;43.55;35.10;57.66;;
64996;Laerm;51545;51.568;6.998;2023-08-06T09:49:18;42.77;35.99;57.04;;
64996;Laerm;51545;51.568;6.998;2023-08-06T09:51:45;46.16;37.81;66.02;;
64996;Laerm;51545;51.568;6.998;2023-08-06T09:54:12;47.54;36.15;68.48;;
64996;Laerm;51545;51.568;6.998;2023-08-06T09:56:38;47.53;37.52;67.49;;
64996;Laerm;51545;51.568;6.998;2023-08-06T09:59:06;48.71;37.60;71.25;;
64996;Laerm;51545;51.568;6.998;2023-08-06T10:01:34;45.23;39.18;65.43;;
64996;Laerm;51545;51.568;6.998;2023-08-06T10:04:01;54.12;42.38;75.76;;
64996;Laerm;51545;51.568;6.998;2023-08-06T10:06:29;51.66;40.85;72.14;;
64996;Laerm;51545;51.568;6.998;2023-08-06T10:08:54;46.12;39.71;65.99;;
64996;Laerm;51545;51.568;6.998;2023-08-06T10:11:24;46.11;38.76;64.60;;
64996;Laerm;51545;51.568;6.998;2023-08-06T10:13:57;46.92;37.13;64.03;;
64996;Laerm;51545;51.568;6.998;2023-08-06T10:16:24;45.57;35.73;67.60;;
64996;Laerm;51545;51.568;6.998;2023-08-06T10:18:51;47.10;39.02;63.33;;
64996;Laerm;51545;51.568;6.998;2023-08-06T10:21:17;50.39;37.98;70.82;;
64996;Laerm;51545;51.568;6.998;2023-08-06T10:23:42;52.61;38.29;73.32;;
64996;Laerm;51545;51.568;6.998;2023-08-06T10:26:08;47.74;36.86;66.87;;
64996;Laerm;51545;51.568;6.998;2023-08-06T10:28:35;49.88;36.67;71.97;;
64996;Laerm;51545;51.568;6.998;2023-08-06T10:31:01;45.23;36.80;66.74;;
64996;Laerm;51545;51.568;6.998;2023-08-06T10:33:46;43.02;35.45;62.75;;
64996;Laerm;51545;51.568;6.998;2023-08-06T10:36:14;45.04;36.13;61.62;;
64996;Laerm;51545;51.568;6.998;2023-08-06T10:38:50;44.53;36.69;64.87;;
64996;Laerm;51545;51.568;6.998;2023-08-06T10:41:22;52.28;34.53;78.62;;
64996;Laerm;51545;51.568;6.998;2023-08-06T10:43:49;47.55;35.99;66.94;;
64996;Laerm;51545;51.568;6.998;2023-08-06T10:46:22;56.65;47.15;69.53;;
64996;Laerm;51545;51.568;6.998;2023-08-06T10:48:48;59.66;53.91;69.91;;
64996;Laerm;51545;51.568;6.998;2023-08-06T10:51:14;57.53;53.42;64.95;;
64996;Laerm;51545;51.568;6.998;2023-08-06T10:53:49;52.40;48.23;63.52;;
64996;Laerm;51545;51.568;6.998;2023-08-06T10:56:20;49.88;43.93;62.82;;
64996;Laerm;51545;51.568;6.998;2023-08-06T10:58:48;46.87;43.40;63.13;;
64996;Laerm;51545;51.568;6.998;2023-08-06T11:01:14;45.91;41.27;59.40;;
64996;Laerm;51545;51.568;6.998;2023-08-06T11:03:41;44.58;40.50;58.23;;
64996;Laerm;51545;51.568;6.998;2023-08-06T11:06:08;45.36;40.40;58.37;;
64996;Laerm;51545;51.568;6.998;2023-08-06T11:08:36;43.75;39.90;57.60;;
64996;Laerm;51545;51.568;6.998;2023-08-06T11:11:11;44.07;39.51;52.93;;
64996;Laerm;51545;51.568;6.998;2023-08-06T11:13:48;43.77;39.04;53.33;;
64996;Laerm;51545;51.568;6.998;2023-08-06T11:16:17;43.43;37.41;54.74;;
64996;Laerm;51545;51.568;6.998;2023-08-06T11:18:44;43.19;38.86;48.07;;
64996;Laerm;51545;51.568;6.998;2023-08-06T11:21:10;45.33;37.96;68.74;;
64996;Laerm;51545;51.568;6.998;2023-08-06T11:23:37;43.72;40.00;51.19;;
64996;Laerm;51545;51.568;6.998;2023-08-06T11:26:03;43.98;39.99;52.00;;
64996;Laerm;51545;51.568;6.998;2023-08-06T11:28:29;45.36;40.97;60.84;;
64996;Laerm;51545;51.568;6.998;2023-08-06T11:30:55;45.29;39.27;58.37;;
64996;Laerm;51545;51.568;6.998;2023-08-06T11:33:26;44.76;39.62;61.75;;
64996;Laerm;51545;51.568;6.998;2023-08-06T11:35:52;43.24;39.01;47.99;;
64996;Laerm;51545;51.568;6.998;2023-08-06T11:38:18;44.02;39.45;57.54;;
64996;Laerm;51545;51.568;6.998;2023-08-06T11:40:52;44.36;40.58;59.02;;
64996;Laerm;51545;51.568;6.998;2023-08-06T11:43:19;45.27;41.18;67.90;;
64996;Laerm;51545;51.568;6.998;2023-08-06T11:45:44;45.93;40.94;62.23;;
64996;Laerm;51545;51.568;6.998;2023-08-06T11:48:10;47.19;41.38;59.31;;
64996;Laerm;51545;51.568;6.998;2023-08-06T11:50:38;47.79;43.56;55.18;;
64996;Laerm;51545;51.568;6.998;2023-08-06T11:53:04;49.48;44.07;61.77;;
64996;Laerm;51545;51.568;6.998;2023-08-06T11:55:30;48.64;44.13;61.16;;
64996;Laerm;51545;51.568;6.998;2023-08-06T11:57:56;46.85;43.62;55.10;;
64996;Laerm;51545;51.568;6.998;2023-08-06T12:00:24;46.66;43.16;52.42;;
64996;Laerm;51545;51.568;6.998;2023-08-06T12:02:50;46.94;42.23;56.20;;
64996;Laerm;51545;51.568;6.998;2023-08-06T12:05:21;46.53;41.72;58.36;;
64996;Laerm;51545;51.568;6.998;2023-08-06T12:07:52;48.26;44.34;59.35;;
64996;Laerm;51545;51.568;6.998;2023-08-06T12:10:18;47.16;42.99;63.59;;
64996;Laerm;51545;51.568;6.998;2023-08-06T12:12:46;48.07;43.21;58.34;;
64996;Laerm;51545;51.568;6.998;2023-08-06T12:15:12;47.12;43.50;52.92;;
64996;Laerm;51545;51.568;6.998;2023-08-06T12:17:38;47.80;43.69;62.72;;
64996;Laerm;51545;51.568;6.998;2023-08-06T12:20:04;48.89;43.11;65.40;;
64996;Laerm;51545;51.568;6.998;2023-08-06T12:22:31;51.31;43.63;66.87;;
64996;Laerm;51545;51.568;6.998;2023-08-06T12:25:05;55.19;44.29;77.30;;
64996;Laerm;51545;51.568;6.998;2023-08-06T12:27:34;52.48;48.01;59.19;;
64996;Laerm;51545;51.568;6.998;2023-08-06T12:30:00;55.99;49.10;62.25;;
64996;Laerm;51545;51.568;6.998;2023-08-06T12:32:25;57.38;53.54;67.95;;
64996;Laerm;51545;51.568;6.998;2023-08-06T12:34:51;60.71;53.49;70.08;;
64996;Laerm;51545;51.568;6.998;2023-08-06T12:37:16;61.06;53.19;70.63;;
64996;Laerm;51545;51.568;6.998;2023-08-06T12:39:42;55.31;51.55;66.73;;
64996;Laerm;51545;51.568;6.998;2023-08-06T12:42:07;54.96;51.08;64.87;;
64996;Laerm;51545;51.568;6.998;2023-08-06T12:44:33;56.98;53.09;68.27;;
64996;Laerm;51545;51.568;6.998;2023-08-06T12:46:59;54.86;51.33;63.67;;
64996;Laerm;51545;51.568;6.998;2023-08-06T12:49:25;54.44;50.67;63.14;;
64996;Laerm;51545;51.568;6.998;2023-08-06T12:51:52;58.08;52.73;73.68;;
64996;Laerm;51545;51.568;6.998;2023-08-06T12:54:19;57.45;52.30;66.47;;
64996;Laerm;51545;51.568;6.998;2023-08-06T12:56:45;60.67;56.48;71.28;;
64996;Laerm;51545;51.568;6.998;2023-08-06T12:59:11;56.56;51.42;74.29;;
64996;Laerm;51545;51.568;6.998;2023-08-06T13:01:37;54.24;50.65;65.44;;
64996;Laerm;51545;51.568;6.998;2023-08-06T13:04:03;52.07;47.76;64.81;;
64996;Laerm;51545;51.568;6.998;2023-08-06T13:06:29;50.49;47.47;61.66;;
64996;Laerm;51545;51.568;6.998;2023-08-06T13:08:56;50.94;46.99;62.42;;
64996;Laerm;51545;51.568;6.998;2023-08-06T13:11:21;51.73;47.94;58.86;;
64996;Laerm;51545;51.568;6.998;2023-08-06T13:13:47;49.67;45.85;56.21;;
64996;Laerm;51545;51.568;6.998;2023-08-06T13:16:12;49.86;45.99;58.76;;
64996;Laerm;51545;51.568;6.998;2023-08-06T13:18:38;49.75;45.97;54.13;;
64996;Laerm;51545;51.568;6.998;2023-08-06T13:21:03;49.01;45.20;65.87;;
64996;Laerm;51545;51.568;6.998;2023-08-06T13:23:29;49.31;45.46;56.40;;
64996;Laerm;51545;51.568;6.998;2023-08-06T13:25:54;49.25;44.42;54.47;;
64996;Laerm;51545;51.568;6.998;2023-08-06T13:28:20;48.10;44.18;52.58;;
64996;Laerm;51545;51.568;6.998;2023-08-06T13:30:46;48.52;44.97;60.06;;
64996;Laerm;51545;51.568;6.998;2023-08-06T13:33:12;47.83;44.58;55.39;;
64996;Laerm;51545;51.568;6.998;2023-08-06T13:35:37;48.46;43.20;63.64;;
64996;Laerm;51545;51.568;6.998;2023-08-06T13:38:03;47.66;43.73;52.54;;
64996;Laerm;51545;51.568;6.998;2023-08-06T13:40:32;49.30;45.56;62.96;;
64996;Laerm;51545;51.568;6.998;2023-08-06T13:42:58;48.35;44.18;59.61;;
64996;Laerm;51545;51.568;6.998;2023-08-06T13:45:24;49.43;44.01;56.91;;